createdAt,value
2022-12-19T00:01:39.811Z,100850.90
2022-12-19T00:06:44.074Z,100845.63
2022-12-19T00:11:52.141Z,100831.66
2022-12-19T00:16:57.095Z,100829.86
2022-12-19T00:21:59.428Z,100840.95
2022-12-19T00:27:01.190Z,100841.58
2022-12-19T00:32:04.137Z,100843.34
2022-12-19T00:37:05.964Z,100847.84
2022-12-19T00:42:07.633Z,100844.92
2022-12-19T00:47:09.690Z,100839.40
2022-12-19T00:52:12.225Z,100832.56
2022-12-19T00:57:13.956Z,100824.73
2022-12-19T01:02:15.669Z,100816.58
2022-12-19T01:07:17.425Z,100808.08
2022-12-19T01:12:37.860Z,100801.27
2022-12-19T01:17:43.988Z,100799.61
2022-12-19T01:22:47.262Z,100795.09
2022-12-19T01:27:48.899Z,100792.05
2022-12-19T01:32:50.570Z,100777.77
2022-12-19T01:37:53.895Z,100771.05
2022-12-19T01:43:14.019Z,100770.92
2022-12-19T01:48:22.378Z,100771.42
2022-12-19T01:53:27.571Z,100768.17
2022-12-19T01:58:30.924Z,100758.55
2022-12-19T02:03:34.727Z,100751.27
2022-12-19T02:08:37.311Z,100749.02
2022-12-19T02:13:39.700Z,100753.08
2022-12-19T02:19:21.227Z,100761.48
2022-12-19T02:24:29.911Z,100752.18
2022-12-19T02:29:50.454Z,100737.48
2022-12-19T02:35:18.449Z,100731.61
2022-12-19T02:40:29.495Z,100731.70
2022-12-19T02:45:37.002Z,100726.94
2022-12-19T02:50:41.761Z,100729.56
2022-12-19T02:56:22.071Z,100723.04
2022-12-19T03:01:36.577Z,100720.77
2022-12-19T03:07:03.679Z,100710.88
2022-12-19T03:12:15.750Z,100699.13
2022-12-19T03:17:19.508Z,100706.66
2022-12-19T03:22:22.372Z,100710.93
2022-12-19T03:27:33.174Z,100702.94
2022-12-19T03:32:38.107Z,100704.23
2022-12-19T03:37:42.765Z,100706.60
2022-12-19T03:43:06.345Z,100703.77
2022-12-19T03:48:19.418Z,100706.19
2022-12-19T03:53:50.428Z,100704.20
2022-12-19T03:59:00.128Z,100703.23
2022-12-19T04:04:03.828Z,100699.55
2022-12-19T04:09:06.310Z,100686.80
2022-12-19T04:14:14.893Z,100670.55
2022-12-19T04:19:23.947Z,100666.97
2022-12-19T04:24:33.192Z,100659.30
2022-12-19T04:29:38.650Z,100661.34
2022-12-19T04:34:43.023Z,100661.71
2022-12-19T04:39:45.034Z,100649.19
2022-12-19T04:44:47.251Z,100654.28
2022-12-19T04:49:49.526Z,100657.05
2022-12-19T04:54:51.216Z,100655.13
2022-12-19T04:59:52.925Z,100658.70
2022-12-19T05:04:55.008Z,100650.77
2022-12-19T05:09:56.718Z,100658.92
2022-12-19T05:14:58.374Z,100656.77
2022-12-19T05:20:00.068Z,100654.52
2022-12-19T05:25:01.804Z,100666.28
2022-12-19T05:30:03.958Z,100667.09
2022-12-19T05:35:06.087Z,100660.66
2022-12-19T05:40:10.633Z,100661.31
2022-12-19T05:45:12.547Z,100663.64
2022-12-19T05:50:15.686Z,100665.70
2022-12-19T05:55:17.858Z,100660.67
2022-12-19T06:00:19.984Z,100655.80
2022-12-19T06:05:21.702Z,100647.79
2022-12-19T06:10:23.418Z,100650.79
2022-12-19T06:15:25.120Z,100639.55
2022-12-19T06:20:26.808Z,100647.13
2022-12-19T06:25:28.513Z,100648.03
2022-12-19T06:30:30.215Z,100649.56
2022-12-19T06:35:31.866Z,100646.28
2022-12-19T06:40:52.395Z,100633.09
2022-12-19T06:45:54.089Z,100623.20
2022-12-19T06:50:55.809Z,100631.23
2022-12-19T06:55:59.324Z,100632.21
2022-12-19T07:01:01.629Z,100622.59
2022-12-19T07:06:05.020Z,100630.41
2022-12-19T07:11:06.864Z,100637.09
2022-12-19T07:16:09.279Z,100635.59
2022-12-19T07:21:11.491Z,100634.42
2022-12-19T07:26:13.371Z,100640.17
2022-12-19T07:31:15.092Z,100646.97
2022-12-19T07:36:16.798Z,100645.88
2022-12-19T07:41:18.905Z,100628.53
2022-12-19T07:46:21.778Z,100633.89
2022-12-19T07:51:23.637Z,100633.19
2022-12-19T07:56:25.336Z,100622.89
2022-12-19T08:01:28.327Z,100616.45
2022-12-19T08:06:31.044Z,100621.48
2022-12-19T08:11:32.736Z,100640.72
2022-12-19T08:16:55.639Z,100627.29
2022-12-19T08:21:58.081Z,100611.80
2022-12-19T08:26:59.755Z,100608.73
2022-12-19T08:32:01.529Z,100608.39
2022-12-19T08:37:03.222Z,100596.61
2022-12-19T08:42:05.015Z,100605.17
2022-12-19T08:47:06.836Z,100607.30
2022-12-19T08:52:08.542Z,100601.73
2022-12-19T08:57:10.287Z,100588.46
2022-12-19T09:02:12.281Z,100580.50
2022-12-19T09:07:15.627Z,100583.89
2022-12-19T09:12:17.928Z,100590.99
2022-12-19T09:17:19.640Z,100580.75
2022-12-19T09:22:21.460Z,100573.21
2022-12-19T09:27:29.748Z,100572.23
2022-12-19T09:32:32.491Z,100557.23
2022-12-19T09:37:34.323Z,100554.59
2022-12-19T09:42:49.058Z,100547.13
2022-12-19T09:47:57.970Z,100539.34
2022-12-19T09:53:06.146Z,100524.17
2022-12-19T09:58:13.717Z,100512.80
2022-12-19T10:03:41.566Z,100515.66
2022-12-19T10:08:54.985Z,100515.56
2022-12-19T10:14:36.212Z,100498.92
2022-12-19T10:20:05.860Z,100486.67
2022-12-19T10:25:29.510Z,100475.44
2022-12-19T10:30:39.312Z,100461.56
2022-12-19T10:35:43.658Z,100460.17
2022-12-19T10:40:53.711Z,100450.55
2022-12-19T10:46:02.652Z,100434.60
2022-12-19T10:51:06.268Z,100426.13
2022-12-19T10:56:25.451Z,100415.48
2022-12-19T11:01:40.512Z,100407.04
2022-12-19T11:06:48.508Z,100399.62
2022-12-19T11:15:18.518Z,100393.98
2022-12-19T11:24:22.755Z,100390.39
2022-12-19T11:29:40.716Z,100384.73
2022-12-19T11:30:47.822Z,100378.96
2022-12-19T11:34:07.135Z,100372.90
2022-12-19T11:39:50.217Z,100358.49
2022-12-19T11:45:14.345Z,100343.96
2022-12-19T11:50:26.686Z,100336.50
2022-12-19T11:55:41.037Z,100334.73
2022-12-19T12:01:03.081Z,100329.67
2022-12-19T12:06:13.460Z,100318.02
2022-12-19T12:17:28.910Z,100309.27
2022-12-19T12:31:05.201Z,100306.50
2022-12-19T12:31:09.677Z,100308.36
2022-12-19T12:31:48.871Z,100313.05
2022-12-19T12:35:52.123Z,100308.88
2022-12-19T12:40:13.089Z,100297.52
2022-12-19T12:45:26.126Z,100285.02
2022-12-19T12:50:28.726Z,100272.95
2022-12-19T12:55:35.249Z,100268.23
2022-12-19T13:00:37.097Z,100263.65
2022-12-19T13:05:57.307Z,100267.23
2022-12-19T13:11:02.893Z,100256.30
2022-12-19T13:16:43.003Z,100248.27
2022-12-19T13:22:03.609Z,100244.71
2022-12-19T13:27:25.213Z,100241.09
2022-12-19T13:32:33.656Z,100236.25
2022-12-19T13:40:00.348Z,100236.92
2022-12-19T13:43:29.245Z,100241.42
2022-12-19T13:48:45.639Z,100233.41
2022-12-19T13:53:59.026Z,100242.85
2022-12-19T13:59:04.015Z,100236.95
2022-12-19T14:04:13.062Z,100237.23
2022-12-19T14:11:28.085Z,100234.33
2022-12-19T14:15:13.074Z,100224.73
2022-12-19T14:22:01.515Z,100216.86
2022-12-19T14:28:15.124Z,100213.32
2022-12-19T14:31:17.952Z,100212.75
2022-12-19T14:36:29.790Z,100203.02
2022-12-19T14:42:00.967Z,100192.45
2022-12-19T14:54:01.917Z,100194.52
2022-12-19T14:54:55.047Z,100192.03
2022-12-19T14:58:53.567Z,100192.77
2022-12-19T15:03:39.427Z,100187.31
2022-12-19T15:09:34.257Z,100175.45
2022-12-19T15:14:56.994Z,100166.46
2022-12-19T15:19:26.518Z,100166.68
2022-12-19T15:24:28.114Z,100168.29
2022-12-19T15:29:31.372Z,100170.55
2022-12-19T15:34:41.624Z,100158.14
2022-12-19T15:39:48.268Z,100154.48
2022-12-19T15:44:51.217Z,100152.54
2022-12-19T15:49:52.920Z,100137.26
2022-12-19T15:54:57.362Z,100134.05
2022-12-19T16:00:02.257Z,100131.02
2022-12-19T16:05:07.608Z,100130.98
2022-12-19T16:10:12.953Z,100127.96
2022-12-19T16:15:35.331Z,100129.22
2022-12-19T16:20:37.792Z,100124.29
2022-12-19T16:25:45.835Z,100121.42
2022-12-19T16:30:50.327Z,100108.58
2022-12-19T16:36:04.039Z,100105.36
2022-12-19T16:41:06.311Z,100106.37
2022-12-19T16:46:12.455Z,100101.56
2022-12-19T16:51:21.997Z,100079.65
2022-12-19T16:56:34.998Z,100076.89
2022-12-19T17:01:36.865Z,100077.02
2022-12-19T17:06:38.714Z,100070.16
2022-12-19T17:11:40.809Z,100071.05
2022-12-19T17:16:42.567Z,100071.02
2022-12-19T17:21:44.661Z,100079.89
2022-12-19T17:26:47.452Z,100084.91
2022-12-19T17:31:49.270Z,100084.64
2022-12-19T17:36:51.324Z,100075.72
2022-12-19T17:41:55.397Z,100072.75
2022-12-19T17:46:57.279Z,100060.81
2022-12-19T17:51:59.888Z,100059.06
2022-12-19T17:57:01.621Z,100053.09
2022-12-19T18:02:03.545Z,100057.32
2022-12-19T18:07:14.464Z,100062.34
2022-12-19T18:12:16.293Z,100065.46
2022-12-19T18:17:25.692Z,100062.08
2022-12-19T18:22:27.533Z,100055.19
2022-12-19T18:27:29.323Z,100041.77
2022-12-19T18:32:31.111Z,100041.75
2022-12-19T18:37:32.933Z,100023.52
2022-12-19T18:42:34.525Z,100014.35
2022-12-19T18:47:36.260Z,100018.77
2022-12-19T18:52:37.837Z,100023.58
2022-12-19T18:57:39.539Z,100026.77
2022-12-19T19:02:44.459Z,100020.98
2022-12-19T19:07:46.828Z,100018.71
2022-12-19T19:12:50.535Z,99999.84
2022-12-19T19:17:58.090Z,99998.20
2022-12-19T19:23:00.243Z,100000.58
2022-12-19T19:28:03.198Z,99989.56
2022-12-19T19:33:11.596Z,99990.96
2022-12-19T19:38:15.202Z,99991.56
2022-12-19T19:43:17.193Z,99988.95
2022-12-19T19:48:18.913Z,99988.04
2022-12-19T19:53:20.557Z,99989.74
2022-12-19T19:58:22.139Z,99986.85
2022-12-19T20:03:24.060Z,99977.70
2022-12-19T20:08:26.361Z,99972.50
2022-12-19T20:13:31.057Z,99968.65
2022-12-19T20:18:32.849Z,99967.13
2022-12-19T20:23:34.704Z,99972.98
2022-12-19T20:28:41.017Z,99972.06
2022-12-19T20:33:55.574Z,99973.73
2022-12-19T20:38:57.265Z,99967.27
2022-12-19T20:43:59.555Z,99961.02
2022-12-19T20:49:01.379Z,99952.56
2022-12-19T20:54:04.656Z,99942.93
2022-12-19T20:59:06.566Z,99938.60
2022-12-19T21:04:08.661Z,99931.77
2022-12-19T21:09:11.444Z,99930.47
2022-12-19T21:14:13.223Z,99933.73
2022-12-19T21:19:15.068Z,99926.99
2022-12-19T21:24:16.813Z,99922.47
2022-12-19T21:29:18.838Z,99914.48
2022-12-19T21:34:20.655Z,99899.02
2022-12-19T21:39:25.640Z,99894.11
2022-12-19T21:44:27.511Z,99893.04
2022-12-19T21:49:29.385Z,99889.23
2022-12-19T21:54:31.245Z,99889.70
2022-12-19T21:59:33.073Z,99897.70
2022-12-19T22:04:34.914Z,99903.84
2022-12-19T22:09:37.043Z,99895.38
2022-12-19T22:14:44.929Z,99892.04
2022-12-19T22:19:46.656Z,99885.81
2022-12-19T22:24:48.391Z,99885.72
2022-12-19T22:29:50.042Z,99883.05
2022-12-19T22:34:51.862Z,99872.86
2022-12-19T22:39:53.703Z,99866.34
2022-12-19T22:44:55.431Z,99873.83
2022-12-19T22:49:57.240Z,99871.05
2022-12-19T22:54:59.065Z,99864.20
2022-12-19T23:00:00.713Z,99851.78
2022-12-19T23:05:02.498Z,99853.55
2022-12-19T23:10:04.407Z,99851.81
2022-12-19T23:15:06.548Z,99846.77
2022-12-19T23:20:08.951Z,99842.68
2022-12-19T23:25:10.804Z,99847.56
2022-12-19T23:30:13.084Z,99847.38
2022-12-19T23:35:14.996Z,99855.16
2022-12-19T23:40:17.446Z,99848.84
2022-12-19T23:45:19.455Z,99844.00
2022-12-19T23:50:21.276Z,99845.45
2022-12-19T23:55:23.009Z,99843.25
